createdAt,value
2019-01-12T00:00:59.496Z,79.21
2019-01-12T00:05:05.485Z,79.25
2019-01-12T00:09:12.474Z,79.22
2019-01-12T00:13:19.011Z,79.24
2019-01-12T00:17:24.339Z,79.19
2019-01-12T00:21:29.597Z,79.36
2019-01-12T00:25:35.187Z,79.42
2019-01-12T00:29:46.219Z,79.69
2019-01-12T00:39:39.293Z,79.23
2019-01-12T00:44:06.551Z,79.13
2019-01-12T00:48:13.393Z,79.38
2019-01-12T00:52:40.621Z,79.67
2019-01-12T00:56:50.080Z,79.89
2019-01-12T01:01:00.292Z,79.98
2019-01-12T01:05:16.534Z,80.07
2019-01-12T01:14:44.323Z,80.15
2019-01-12T01:35:36.996Z,80.44
2019-01-12T01:45:10.529Z,80.48
2019-01-12T02:06:06.541Z,80.13
2019-01-12T02:10:49.711Z,79.87
2019-01-12T02:31:20.982Z,79.23
2019-01-12T02:35:44.133Z,78.93
2019-01-12T02:40:17.200Z,79.00
2019-01-12T02:44:23.305Z,79.09
2019-01-12T02:48:55.210Z,78.95
2019-01-12T02:53:19.632Z,78.85
2019-01-12T02:58:03.110Z,78.84
2019-01-12T03:07:21.184Z,78.76
2019-01-12T03:11:30.244Z,78.82
2019-01-12T03:20:54.122Z,78.86
2019-01-12T03:25:50.435Z,78.77
2019-01-12T03:35:05.959Z,79.60
2019-01-12T03:39:27.407Z,79.65
2019-01-12T03:48:34.311Z,79.82
2019-01-12T03:52:47.951Z,79.96
2019-01-12T04:01:40.983Z,80.11
2019-01-12T04:05:47.799Z,80.21
2019-01-12T04:09:54.744Z,80.17
2019-01-12T04:14:30.494Z,80.21
2019-01-12T04:19:05.137Z,80.12
2019-01-12T04:23:30.660Z,79.81
2019-01-12T04:28:38.369Z,79.57
2019-01-12T04:32:46.101Z,79.64
2019-01-12T04:37:22.367Z,79.65
2019-01-12T04:41:37.034Z,79.66
2019-01-12T04:45:51.230Z,79.69
2019-01-12T04:49:58.950Z,79.53
2019-01-12T04:59:15.585Z,79.32
2019-01-12T05:03:23.982Z,79.06
2019-01-12T05:07:34.571Z,78.57
2019-01-12T05:11:39.965Z,78.35
2019-01-12T05:20:54.668Z,77.87
2019-01-12T05:25:27.168Z,77.69
2019-01-12T05:29:47.627Z,77.63
2019-01-12T05:34:02.643Z,77.45
2019-01-12T05:39:21.084Z,77.24
2019-01-12T05:43:34.927Z,77.13
2019-01-12T05:47:46.530Z,76.56
2019-01-12T05:57:10.616Z,76.39
2019-01-12T06:07:26.286Z,75.52
2019-01-12T06:37:59.999Z,73.22
2019-01-12T06:42:06.041Z,73.39
2019-01-12T06:46:11.239Z,73.33
2019-01-12T06:50:18.649Z,73.32
2019-01-12T06:54:23.709Z,73.73
2019-01-12T06:58:29.863Z,73.47
2019-01-12T07:02:35.001Z,73.73
2019-01-12T07:06:40.141Z,74.27
2019-01-12T07:10:45.328Z,74.31
2019-01-12T07:14:50.475Z,74.77
2019-01-12T07:18:55.587Z,75.10
2019-01-12T07:23:02.753Z,75.33
2019-01-12T07:27:07.979Z,75.47
2019-01-12T07:31:14.108Z,75.13
2019-01-12T07:35:19.314Z,75.03
2019-01-12T07:39:25.333Z,74.73
2019-01-12T07:43:30.482Z,74.53
2019-01-12T07:47:36.483Z,74.03
2019-01-12T07:51:43.493Z,73.42
2019-01-12T07:55:48.586Z,72.58
2019-01-12T07:59:54.430Z,72.58
2019-01-12T08:04:00.699Z,71.92
2019-01-12T08:08:05.867Z,72.02
2019-01-12T08:12:11.009Z,72.33
2019-01-12T08:16:16.166Z,72.34
2019-01-12T08:20:21.314Z,72.63
2019-01-12T08:24:26.361Z,72.76
2019-01-12T08:28:31.513Z,73.08
2019-01-12T08:32:36.569Z,73.21
2019-01-12T08:36:41.590Z,73.17
2019-01-12T08:40:49.614Z,73.14
2019-01-12T08:44:54.683Z,73.00
2019-01-12T08:48:59.802Z,73.12
2019-01-12T08:53:05.114Z,72.66
2019-01-12T08:57:10.145Z,72.18
2019-01-12T09:01:15.258Z,72.22
2019-01-12T09:05:21.442Z,71.21
2019-01-12T09:09:28.579Z,70.76
2019-01-12T09:13:34.725Z,70.81
2019-01-12T09:17:39.829Z,70.15
2019-01-12T09:21:45.790Z,69.77
2019-01-12T09:25:51.896Z,69.59
2019-01-12T09:29:57.254Z,69.22
2019-01-12T09:34:02.340Z,69.21
2019-01-12T09:38:08.450Z,68.99
2019-01-12T09:42:13.650Z,69.20
2019-01-12T09:46:19.082Z,69.46
2019-01-12T09:50:26.310Z,69.25
2019-01-12T09:54:31.373Z,69.29
2019-01-12T09:58:37.737Z,69.51
2019-01-12T10:02:42.862Z,69.99
2019-01-12T10:06:48.028Z,70.36
2019-01-12T10:10:53.132Z,70.60
2019-01-12T10:14:59.191Z,70.44
2019-01-12T10:19:04.249Z,70.41
2019-01-12T10:23:10.242Z,69.68
2019-01-12T10:27:15.318Z,69.42
2019-01-12T10:31:20.407Z,69.32
2019-01-12T10:35:25.475Z,69.03
2019-01-12T10:39:30.529Z,68.53
2019-01-12T10:43:36.591Z,68.81
2019-01-12T10:47:43.129Z,69.04
2019-01-12T10:51:48.254Z,68.49
2019-01-12T10:55:53.323Z,68.39
2019-01-12T10:59:58.523Z,68.86
2019-01-12T11:04:03.631Z,68.71
2019-01-12T11:08:09.048Z,69.15
2019-01-12T11:12:14.419Z,69.72
2019-01-12T11:16:19.494Z,70.00
2019-01-12T11:20:24.519Z,70.67
2019-01-12T11:24:29.969Z,70.92
2019-01-12T11:28:35.116Z,70.91
2019-01-12T11:32:40.269Z,71.36
2019-01-12T11:36:45.335Z,73.07
2019-01-12T11:40:50.486Z,73.29
2019-01-12T11:44:56.511Z,74.18
2019-01-12T11:49:01.576Z,74.19
2019-01-12T11:53:06.642Z,74.22
2019-01-12T11:57:18.972Z,74.11
2019-01-12T12:01:19.667Z,74.62
2019-01-12T12:05:25.230Z,75.29
2019-01-12T12:09:30.308Z,75.81
2019-01-12T12:13:36.385Z,76.28
2019-01-12T12:17:43.971Z,76.71
2019-01-12T12:21:48.942Z,77.12
2019-01-12T12:25:54.089Z,77.25
2019-01-12T12:29:59.217Z,77.47
2019-01-12T12:34:04.405Z,77.80
2019-01-12T12:38:09.476Z,77.80
2019-01-12T12:42:15.629Z,77.93
2019-01-12T12:46:20.694Z,78.46
2019-01-12T12:50:25.784Z,78.72
2019-01-12T12:54:30.839Z,78.87
2019-01-12T12:58:36.171Z,78.77
2019-01-12T13:02:42.273Z,78.85
2019-01-12T13:06:47.469Z,79.07
2019-01-12T13:10:52.577Z,79.36
2019-01-12T13:14:58.006Z,79.52
2019-01-12T13:19:03.191Z,79.45
2019-01-12T13:23:08.334Z,79.50
2019-01-12T13:27:13.405Z,79.57
2019-01-12T13:31:19.030Z,79.50
2019-01-12T13:35:24.118Z,79.55
2019-01-12T13:39:32.158Z,79.72
2019-01-12T13:43:36.134Z,79.89
2019-01-12T13:47:41.270Z,79.80
2019-01-12T13:51:46.355Z,79.81
2019-01-12T13:55:51.465Z,80.04
2019-01-12T13:59:56.786Z,80.03
2019-01-12T14:04:01.846Z,80.27
2019-01-12T14:08:07.742Z,80.52
2019-01-12T14:12:13.154Z,80.62
2019-01-12T14:16:18.210Z,80.73
2019-01-12T14:20:25.607Z,80.67
2019-01-12T14:24:30.708Z,80.90
2019-01-12T14:28:35.881Z,80.78
2019-01-12T14:32:41.033Z,80.80
2019-01-12T14:36:46.148Z,80.78
2019-01-12T14:40:51.494Z,80.70
2019-01-12T14:44:56.686Z,80.71
2019-01-12T14:49:01.762Z,80.82
2019-01-12T14:53:06.844Z,80.74
2019-01-12T14:57:11.999Z,80.74
2019-01-12T15:01:17.098Z,80.78
2019-01-12T15:05:24.377Z,80.73
2019-01-12T15:09:29.956Z,80.70
2019-01-12T15:13:36.095Z,80.71
2019-01-12T15:17:41.179Z,80.80
2019-01-12T15:21:47.292Z,80.81
2019-01-12T15:25:52.328Z,80.70
2019-01-12T15:29:57.569Z,80.73
2019-01-12T15:34:02.801Z,80.78
2019-01-12T15:42:46.615Z,80.90
2019-01-12T15:46:51.833Z,81.00
2019-01-12T15:50:56.897Z,81.02
2019-01-12T15:55:01.982Z,81.01
2019-01-12T15:59:07.424Z,80.97
2019-01-12T16:03:12.574Z,80.87
2019-01-12T16:07:36.861Z,80.85
2019-01-12T16:11:42.012Z,80.80
2019-01-12T16:15:48.246Z,80.77
2019-01-12T16:19:53.382Z,80.90
2019-01-12T16:23:58.510Z,80.97
2019-01-12T16:28:04.688Z,80.50
2019-01-12T16:32:10.423Z,80.47
2019-01-12T16:36:15.834Z,80.57
2019-01-12T16:40:22.483Z,80.39
2019-01-12T16:44:27.669Z,80.30
2019-01-12T16:48:33.032Z,80.11
2019-01-12T16:52:54.238Z,80.16
2019-01-12T16:56:59.562Z,80.13
2019-01-12T17:01:04.717Z,80.02
2019-01-12T17:05:09.937Z,79.80
2019-01-12T17:09:15.097Z,79.79
2019-01-12T17:13:20.338Z,79.88
2019-01-12T17:17:25.429Z,79.73
2019-01-12T17:28:17.494Z,79.71
2019-01-12T17:38:05.047Z,79.37
2019-01-12T17:42:19.206Z,79.52
2019-01-12T17:46:55.622Z,79.43
2019-01-12T17:56:33.301Z,78.88
2019-01-12T18:00:50.732Z,78.56
2019-01-12T18:05:03.501Z,78.21
2019-01-12T18:09:08.755Z,77.96
2019-01-12T18:13:17.808Z,78.04
2019-01-12T18:17:23.228Z,78.01
2019-01-12T18:21:30.021Z,78.05
2019-01-12T18:25:35.095Z,78.34
2019-01-12T18:29:40.230Z,78.33
2019-01-12T18:33:45.483Z,78.44
2019-01-12T18:37:50.633Z,78.43
2019-01-12T18:41:55.856Z,78.79
2019-01-12T18:46:00.930Z,79.24
2019-01-12T18:50:07.618Z,79.63
2019-01-12T18:54:13.657Z,80.01
2019-01-12T18:58:19.041Z,80.28
2019-01-12T19:02:24.394Z,80.41
2019-01-12T19:06:29.503Z,79.93
2019-01-12T19:10:34.623Z,79.91
2019-01-12T19:14:39.795Z,80.04
2019-01-12T19:18:44.881Z,79.91
2019-01-12T19:23:02.267Z,79.67
2019-01-12T19:27:07.501Z,79.50
2019-01-12T19:31:13.425Z,79.42
2019-01-12T19:35:18.710Z,77.66
2019-01-12T19:39:23.775Z,78.91
2019-01-12T19:43:28.732Z,79.77
2019-01-12T19:47:33.841Z,79.81
2019-01-12T19:52:15.842Z,79.76
2019-01-12T19:56:46.647Z,79.58
2019-01-12T20:02:20.806Z,79.44
2019-01-12T20:10:04.679Z,78.67
2019-01-12T20:12:01.236Z,78.81
2019-01-12T20:16:14.482Z,79.16
2019-01-12T20:20:19.776Z,79.34
2019-01-12T20:24:32.226Z,79.44
2019-01-12T20:34:22.786Z,79.16
2019-01-12T20:43:36.324Z,78.75
2019-01-12T20:48:25.495Z,78.70
2019-01-12T20:52:49.785Z,78.81
2019-01-12T20:57:27.799Z,78.89
2019-01-12T21:03:33.201Z,79.08
2019-01-12T21:07:28.869Z,78.81
2019-01-12T21:12:22.911Z,78.55
2019-01-12T21:22:07.791Z,79.30
2019-01-12T21:26:12.659Z,79.60
2019-01-12T21:30:33.764Z,79.66
2019-01-12T21:34:38.977Z,79.72
2019-01-12T21:38:44.250Z,79.77
2019-01-12T21:43:22.187Z,79.90
2019-01-12T21:52:40.993Z,79.75
2019-01-12T21:56:46.259Z,79.35
2019-01-12T22:00:51.354Z,79.38
2019-01-12T22:04:56.532Z,79.39
2019-01-12T22:09:01.741Z,79.43
2019-01-12T22:56:39.531Z,78.70
2019-01-12T23:01:07.973Z,78.72
2019-01-12T23:05:13.299Z,78.68
2019-01-12T23:09:18.730Z,78.65
2019-01-12T23:13:23.821Z,78.32
2019-01-12T23:17:28.903Z,78.14
2019-01-12T23:21:34.065Z,78.16
2019-01-12T23:25:39.233Z,78.33
2019-01-12T23:29:44.352Z,78.32
2019-01-12T23:33:49.535Z,78.19
2019-01-12T23:37:54.581Z,78.11
2019-01-12T23:41:59.665Z,78.07
2019-01-12T23:46:04.947Z,78.26
2019-01-12T23:50:10.100Z,78.30
2019-01-12T23:54:15.279Z,78.47
2019-01-12T23:58:20.398Z,78.73
